Airfield :
LOGIN :

Register | Disclaimer

   EN    FR    IT 

 










Legend :    VFR   Marginal VFR   IFR   Intensive IFR   Very Intensive IFR
Visi :
Ceiling :
>= 8 km
>= 3000ft
5 to 8 km
1000 to 3000 ft
1500m to 5 km
500 to 1000 ft
800 to 1500m
200 to 500 ft
< 800m
< 200 ft
Symbols :   Thunderstorms  Fog  Heavy snow  Heavy precipitations  Wind > 20 kt
SIGMETs :     Misc.  Thunderstorms  Icing  Turbulence  Mountain Waves  Volcanic Ashes







- Airport Elevation : 1036 ft
- IATA code : ERF


EDDE - Erfurt

CURRENT METAR :
  • 191820Z 23009KT 9999 BKN023 04/02 Q1019 NOSIG

EXPIRED METARs :
  • 191750Z 22010KT 9999 BKN023 04/02 Q1019 NOSIG
  • 191720Z 22010KT 9999 -RA BKN033 BKN083 04/02 Q1019 NOSIG
  • 191650Z 22009KT 9999 -RA BKN033 BKN083 04/02 Q1019 NOSIG
  • 191620Z 23011KT 9999 -RA SCT033 BKN083 04/02 Q1019 NOSIG
  • 191550Z 21009KT 9999 SCT040 BKN083 05/02 Q1019 NOSIG

TAF TAF EDDE
Valid from the 19 at 18:00 until the 20 at 18:00 UTC


191700Z 1918/2018 23010KT 9999 BKN030
PROB30
TEMPO 1920/2006 BKN013
BECMG 2006/2009 22015KT
TEMPO 2009/2018 22020G30KT
BECMG 2015/2018 BKN013
No reported NOTAMs for that airfield.



MET'MAP, your aeronautical weather chart ! - Copyright ORBIFLY December 2007 - Disclaimer

ORBIFLY MET'MAP TEAM :

Programming & Development : Alexandra Zaïnal
Concept & Development : Baudouin d'Aumeries
Co-Development & Prog : Marc-Olivier Méhu
Technical & hardware support : Manuel Goepfert

Contact : metmap@orbifly.com




SOURCES & CREDITS :

   NOAA